首页
METAR-TAF:

METAR-TAF

机场 :

黑堡, 弗吉尼亚州, 美国

纬度: 37-13N, 经度: 080-25W, 海拔: 650米

当前天气观测

该预报发布于29分钟前的06:55 UTC
风速7节,风向南转南东
温度 13°C
湿度 94%
气压 1005 hPa
能見度: 11.3公里
阴天层高于2400英尺
大毛毛雨

METAR: KBCB 240655Z AUTO 16007KT 7SM +DZ OVC024 13/12 A2968 RMK AO2 P0004 T01300119

时间: 02:24 (07:24 UTC)

预报

该预报发布于1小时和47分钟前的05:37 UTC
预报有效从24日的 06点(UTC)到 25日的 06点(UTC)
风速7节,风向
能見度: 10公里
散云层高于1500英尺
阴天层高于2200英尺
小雨
短暂存在
从 24日的 06点(UTC)到 24日的 10点(UTC)
能見度: 1.6公里
多云层高于1500英尺
雨, 轻雾
从 24日的 1000点(UTC)
风速7节,风向西
能見度: 9.7公里
多云层高于700英尺
阴天层高于1500英尺
轻雾, 附近有阵雨
从 24日的 1500点(UTC)
风速14节,风向西转西北,有时为31节阵风
能見度: 10公里
多云层高于2000英尺
从 24日的 2100点(UTC)
风速12节,风向西转西北,有时为23节阵风
能見度: 10公里
散云层高于2500英尺

TAF: KBCB 240537Z 2406/2506 17007KT P6SM -RA SCT015 OVC022 WS020/19045KT TEMPO 2406/2410 1SM RA BR BKN015 FM241000 27007KT 6SM BR VCSH BKN007 OVC015 FM241500 30014G31KT P6SM BKN020 FM242100 29012G23KT P6SM SCT025

超过4000个机场的气象观测和天气预报(METAR&TAF报告)。

可查询的气象台以黄色和红色小点在地图上表示。

将鼠标移到小点上方,可查看气象台名称。

然后点击查看天气观测和预报。

如需切换地图:点击带黑十字的绿色按钮放大地图;点击带横线的绿色按钮缩小地图;或者点击绿色箭头查看邻近地区的地图。


METAR-TAF: